ADDS METAR Data INFO
IDs: Format: Raw Decoded Include TAF

Data at: 1021 UTC 20 Jul 2018

METAR for:KLEX (Lexington/Blue Grass, KY, US)
Text:KLEX 200954Z 18010KT 10SM SCT075 OVC090 23/20 A2993 RMK AO2 LTG DSNT SW AND W SLP124 T02330200
Temperature: 23.3°C ( 74°F)
Dewpoint: 20.0°C ( 68°F) [RH = 82%]
Pressure (altimeter):29.93 inches Hg (1013.6 mb) [Sea level pressure: 1012.4 mb]
Winds:from the S (180 degrees) at 12 MPH (10 knots; 5.1 m/s)
Visibility:10 or more sm (16+ km)
Ceiling:9000 feet AGL
Clouds: scattered clouds at 7500 feet AGL, overcast cloud deck at 9000 feet AGL